createdAt,value
2018-01-14T00:00:07.213Z,35.22
2018-01-14T00:02:34.824Z,44.80
2018-01-14T00:05:03.183Z,29.95
2018-01-14T00:07:31.274Z,30.77
2018-01-14T00:09:59.654Z,35.65
2018-01-14T00:12:27.266Z,41.10
2018-01-14T00:14:55.163Z,38.45
2018-01-14T00:17:22.769Z,30.27
2018-01-14T00:19:50.664Z,35.58
2018-01-14T00:22:18.249Z,35.05
2018-01-14T00:24:45.862Z,35.00
2018-01-14T00:27:14.234Z,39.47
2018-01-14T00:29:41.867Z,33.70
2018-01-14T00:32:10.228Z,41.90
2018-01-14T00:34:37.856Z,40.30
2018-01-14T00:37:05.433Z,34.95
2018-01-14T00:39:36.511Z,35.15
2018-01-14T00:42:05.858Z,39.35
2018-01-14T00:44:33.446Z,35.78
2018-01-14T00:47:01.102Z,37.47
2018-01-14T00:49:28.707Z,34.83
2018-01-14T00:51:56.303Z,37.45
2018-01-14T00:54:23.915Z,35.38
2018-01-14T00:56:52.308Z,33.83
2018-01-14T00:59:20.717Z,42.88
2018-01-14T01:01:48.347Z,42.95
2018-01-14T01:04:17.953Z,37.92
2018-01-14T01:06:48.264Z,31.92
2018-01-14T01:09:16.909Z,34.67
2018-01-14T01:11:44.499Z,34.40
2018-01-14T01:14:12.136Z,39.17
2018-01-14T01:16:39.733Z,36.45
2018-01-14T01:19:07.592Z,37.33
2018-01-14T01:21:35.192Z,33.33
2018-01-14T01:24:03.167Z,37.67
2018-01-14T01:26:30.754Z,30.67
2018-01-14T01:28:59.155Z,36.30
2018-01-14T01:31:26.761Z,32.80
2018-01-14T01:33:54.374Z,29.25
2018-01-14T01:36:21.987Z,31.20
2018-01-14T01:38:49.652Z,31.92
2018-01-14T01:41:17.233Z,32.45
2018-01-14T01:43:44.859Z,26.15
2018-01-14T01:46:12.463Z,26.58
2018-01-14T01:48:40.043Z,38.53
2018-01-14T01:51:08.470Z,35.33
2018-01-14T01:53:36.070Z,26.83
2018-01-14T01:56:03.700Z,32.60
2018-01-14T01:58:31.289Z,27.98
2018-01-14T02:00:58.872Z,30.60
2018-01-14T02:03:26.641Z,34.90
2018-01-14T02:05:54.229Z,31.37
2018-01-14T02:08:22.620Z,26.02
2018-01-14T02:10:50.243Z,29.92
2018-01-14T02:13:17.869Z,37.33
2018-01-14T02:15:46.256Z,30.90
2018-01-14T02:18:13.855Z,32.35
2018-01-14T02:20:41.496Z,30.67
2018-01-14T02:23:09.100Z,33.17
2018-01-14T02:25:36.712Z,27.42
2018-01-14T02:28:05.086Z,26.90
2018-01-14T02:30:32.677Z,32.47
2018-01-14T02:33:00.278Z,38.72
2018-01-14T02:35:27.898Z,28.27
2018-01-14T02:37:56.294Z,29.85
2018-01-14T02:40:23.897Z,30.88
2018-01-14T02:42:51.609Z,30.33
2018-01-14T02:45:19.233Z,29.42
2018-01-14T02:47:46.864Z,25.83
2018-01-14T02:50:14.483Z,28.00
2018-01-14T02:52:42.092Z,30.45
2018-01-14T02:55:09.705Z,34.58
2018-01-14T02:57:37.333Z,28.00
2018-01-14T03:00:04.995Z,27.85
2018-01-14T03:02:32.873Z,28.17
2018-01-14T03:05:00.448Z,37.80
2018-01-14T03:07:29.089Z,31.77
2018-01-14T03:09:57.455Z,35.38
2018-01-14T03:12:25.064Z,28.60
2018-01-14T03:14:52.683Z,31.85
2018-01-14T03:17:20.274Z,27.90
2018-01-14T03:19:48.659Z,38.53
2018-01-14T03:22:17.011Z,34.17
2018-01-14T03:24:44.624Z,34.42
2018-01-14T03:27:14.440Z,29.60
2018-01-14T03:29:42.056Z,34.28
2018-01-14T03:32:09.664Z,27.15
2018-01-14T03:34:38.042Z,28.83
2018-01-14T03:37:06.423Z,27.23
2018-01-14T03:39:34.835Z,42.53
2018-01-14T03:42:02.409Z,31.10
2018-01-14T03:44:30.095Z,31.52
2018-01-14T03:46:57.699Z,28.62
2018-01-14T03:49:26.079Z,27.02
2018-01-14T03:51:54.431Z,31.15
2018-01-14T03:54:22.029Z,30.33
2018-01-14T03:56:50.445Z,28.17
2018-01-14T03:59:18.047Z,34.45
2018-01-14T04:01:45.726Z,31.48
2018-01-14T04:04:13.329Z,27.92
2018-01-14T04:06:41.737Z,50.85
2018-01-14T04:09:09.387Z,27.17
2018-01-14T04:11:37.023Z,26.90
2018-01-14T04:14:04.653Z,37.10
2018-01-14T04:16:32.249Z,28.67
2018-01-14T04:18:59.904Z,27.00
2018-01-14T04:21:27.528Z,31.80
2018-01-14T04:23:55.130Z,32.88
2018-01-14T04:26:22.787Z,33.42
2018-01-14T04:28:50.450Z,31.40
2018-01-14T04:31:18.069Z,34.13
2018-01-14T04:33:46.438Z,25.88
2018-01-14T04:36:15.898Z,27.50
2018-01-14T04:38:44.495Z,33.03
2018-01-14T04:41:12.091Z,29.75
2018-01-14T04:43:39.705Z,28.50
2018-01-14T04:46:08.402Z,34.13
2018-01-14T04:48:36.004Z,36.50
2018-01-14T04:51:04.576Z,35.60
2018-01-14T04:53:32.215Z,32.30
2018-01-14T04:55:59.807Z,34.97
2018-01-14T04:58:27.438Z,33.83
2018-01-14T05:00:55.057Z,31.27
2018-01-14T05:03:22.667Z,34.90
2018-01-14T05:05:50.297Z,32.80
2018-01-14T05:08:17.941Z,38.63
2018-01-14T05:10:45.527Z,33.05
2018-01-14T05:13:13.184Z,33.25
2018-01-14T05:15:40.793Z,31.20
2018-01-14T05:18:08.437Z,30.45
2018-01-14T05:20:36.819Z,35.67
2018-01-14T05:23:05.200Z,39.55
2018-01-14T05:25:32.794Z,35.00
2018-01-14T05:28:00.457Z,43.70
2018-01-14T05:30:28.055Z,39.90
2018-01-14T05:32:55.638Z,35.08
2018-01-14T05:35:23.277Z,33.70
2018-01-14T05:37:50.898Z,34.00
2018-01-14T05:40:19.278Z,28.00
2018-01-14T05:42:47.661Z,32.05
2018-01-14T05:45:15.281Z,27.77
2018-01-14T05:47:42.901Z,30.90
2018-01-14T05:50:10.540Z,32.22
2018-01-14T05:52:38.178Z,31.80
2018-01-14T05:55:06.531Z,30.67
2018-01-14T05:57:34.893Z,32.47
2018-01-14T06:00:03.331Z,29.30
2018-01-14T06:02:30.938Z,36.25
2018-01-14T06:04:58.573Z,36.78
2018-01-14T06:07:26.273Z,39.70
2018-01-14T06:09:54.124Z,31.50
2018-01-14T06:12:21.710Z,32.30
2018-01-14T06:14:49.324Z,30.33
2018-01-14T06:17:16.889Z,29.17
2018-01-14T06:19:44.532Z,31.60
2018-01-14T06:22:12.196Z,26.20
2018-01-14T06:24:40.555Z,29.98
2018-01-14T06:27:08.138Z,28.52
2018-01-14T06:29:36.529Z,33.67
2018-01-14T06:32:04.131Z,35.28
2018-01-14T06:34:31.741Z,30.83
2018-01-14T06:37:00.103Z,28.20
2018-01-14T06:39:28.070Z,32.58
2018-01-14T06:41:55.725Z,32.13
2018-01-14T06:44:23.351Z,31.30
2018-01-14T06:46:50.988Z,28.35
2018-01-14T06:49:18.610Z,31.27
2018-01-14T06:51:46.177Z,27.90
2018-01-14T06:54:13.799Z,26.35
2018-01-14T06:56:42.204Z,29.58
2018-01-14T06:59:09.814Z,31.42
2018-01-14T07:01:37.437Z,31.75
2018-01-14T07:04:05.073Z,31.20
2018-01-14T07:06:32.738Z,30.00
2018-01-14T07:09:01.130Z,26.45
2018-01-14T07:11:29.512Z,28.90
2018-01-14T07:13:58.916Z,30.73
2018-01-14T07:16:27.303Z,33.65
2018-01-14T07:18:55.658Z,32.88
2018-01-14T07:21:23.270Z,28.50
2018-01-14T07:23:50.878Z,32.33
2018-01-14T07:26:18.498Z,28.15
2018-01-14T07:28:46.136Z,27.00
2018-01-14T07:31:13.724Z,31.67
2018-01-14T07:33:42.080Z,34.72
2018-01-14T07:36:09.663Z,31.95
2018-01-14T07:38:38.033Z,26.80
2018-01-14T07:41:05.677Z,28.98
2018-01-14T07:43:33.298Z,28.20
2018-01-14T07:46:00.883Z,34.15
2018-01-14T07:48:28.478Z,29.65
2018-01-14T07:50:56.096Z,24.90
2018-01-14T07:53:23.672Z,30.48
2018-01-14T07:55:51.294Z,25.00
2018-01-14T07:58:19.680Z,25.75
2018-01-14T08:00:47.475Z,23.98
2018-01-14T08:03:15.277Z,29.00
2018-01-14T08:05:42.963Z,29.12
2018-01-14T08:08:11.535Z,28.35
2018-01-14T08:10:39.305Z,31.73
2018-01-14T08:13:07.132Z,25.12
2018-01-14T08:15:34.799Z,26.35
2018-01-14T08:18:02.493Z,31.00
2018-01-14T08:20:30.120Z,25.70
2018-01-14T08:22:58.619Z,27.17
2018-01-14T08:25:27.041Z,29.58
2018-01-14T08:27:54.796Z,27.02
2018-01-14T08:30:22.595Z,26.85
2018-01-14T08:32:50.209Z,20.92
2018-01-14T08:35:18.021Z,24.27
2018-01-14T08:37:45.662Z,26.20
2018-01-14T08:40:13.418Z,24.35
2018-01-14T08:42:41.056Z,25.02
2018-01-14T08:45:08.716Z,23.35
2018-01-14T08:47:37.220Z,30.58
2018-01-14T08:50:04.851Z,23.23
2018-01-14T08:52:32.442Z,27.30
2018-01-14T08:55:00.082Z,27.50
2018-01-14T08:57:28.216Z,21.95
2018-01-14T08:59:57.234Z,22.87
2018-01-14T09:02:24.830Z,24.75
2018-01-14T09:04:52.697Z,25.80
2018-01-14T09:07:20.522Z,22.83
2018-01-14T09:09:48.437Z,24.55
2018-01-14T09:12:16.058Z,19.90
2018-01-14T09:14:44.452Z,20.80
2018-01-14T09:17:12.042Z,19.05
2018-01-14T09:19:39.668Z,24.98
2018-01-14T09:22:08.717Z,21.35
2018-01-14T09:24:38.281Z,21.10
2018-01-14T09:27:06.287Z,19.25
2018-01-14T09:29:33.982Z,22.08
2018-01-14T09:32:01.593Z,20.02
2018-01-14T09:34:30.125Z,23.67
2018-01-14T09:36:57.914Z,17.62
2018-01-14T09:39:26.543Z,19.45
2018-01-14T09:41:54.134Z,17.62
2018-01-14T09:44:22.028Z,20.98
2018-01-14T09:46:50.422Z,19.83
2018-01-14T09:49:18.032Z,23.25
2018-01-14T09:51:45.610Z,21.15
2018-01-14T09:54:13.235Z,22.17
2018-01-14T09:56:42.078Z,27.42
2018-01-14T09:59:09.919Z,23.95
2018-01-14T10:01:37.567Z,23.12
2018-01-14T10:04:05.165Z,22.67
2018-01-14T10:06:32.756Z,21.62
2018-01-14T10:09:00.393Z,17.52
2018-01-14T10:11:28.040Z,20.85
2018-01-14T10:13:55.722Z,20.80
2018-01-14T10:16:24.134Z,22.87
2018-01-14T10:18:52.483Z,17.45
2018-01-14T10:21:20.849Z,18.10
2018-01-14T10:23:49.233Z,22.90
2018-01-14T10:26:17.592Z,26.90
2018-01-14T10:28:45.203Z,20.88
2018-01-14T10:31:13.560Z,25.17
2018-01-14T10:33:41.950Z,22.48
2018-01-14T10:36:10.329Z,18.75
2018-01-14T10:38:38.714Z,21.08
2018-01-14T10:41:07.359Z,22.17
2018-01-14T10:43:35.230Z,24.67
2018-01-14T10:46:04.836Z,20.90
2018-01-14T10:48:32.596Z,23.55
2018-01-14T10:51:01.414Z,23.60
2018-01-14T10:53:29.251Z,24.00
2018-01-14T10:55:57.311Z,20.12
2018-01-14T10:58:25.150Z,19.45
2018-01-14T11:00:58.834Z,23.95
2018-01-14T11:03:27.260Z,21.23
2018-01-14T11:05:55.820Z,20.00
2018-01-14T11:08:24.450Z,21.87
2018-01-14T11:10:52.336Z,23.77
2018-01-14T11:16:14.650Z,21.10
2018-01-14T11:18:46.220Z,23.60
2018-01-14T11:21:14.252Z,25.48
2018-01-14T11:23:42.238Z,19.20
2018-01-14T11:26:10.891Z,20.88
2018-01-14T11:28:41.928Z,19.95
2018-01-14T11:31:12.071Z,23.25
2018-01-14T11:33:44.840Z,21.83
2018-01-14T11:36:12.883Z,20.70
2018-01-14T11:38:41.280Z,17.35
2018-01-14T11:41:09.942Z,23.80
2018-01-14T11:43:37.587Z,20.20
2018-01-14T11:46:05.578Z,24.90
2018-01-14T11:48:33.956Z,16.55
2018-01-14T11:51:01.789Z,20.10
2018-01-14T11:53:30.405Z,20.52
2018-01-14T11:55:58.841Z,23.58
2018-01-14T11:58:26.703Z,25.25
2018-01-14T12:00:54.682Z,19.17
2018-01-14T12:03:22.690Z,16.42
2018-01-14T12:05:50.413Z,19.15
2018-01-14T12:08:37.284Z,19.75
2018-01-14T12:11:05.694Z,20.50
2018-01-14T12:13:34.089Z,21.60
2018-01-14T12:16:01.747Z,17.75
2018-01-14T12:18:30.158Z,19.60
2018-01-14T12:20:57.850Z,22.83
2018-01-14T12:23:25.506Z,23.67
2018-01-14T12:25:53.117Z,20.35
2018-01-14T12:28:20.748Z,22.42
2018-01-14T12:30:48.447Z,23.95
2018-01-14T12:33:16.860Z,19.80
2018-01-14T12:35:45.287Z,19.83
2018-01-14T12:38:12.872Z,17.60
2018-01-14T12:40:40.515Z,18.15
2018-01-14T12:43:08.115Z,16.85
2018-01-14T12:45:35.769Z,21.35
2018-01-14T12:48:03.533Z,19.10
2018-01-14T12:50:31.154Z,18.33
2018-01-14T12:52:58.785Z,20.42
2018-01-14T12:55:26.447Z,19.10
2018-01-14T12:57:54.070Z,20.10
2018-01-14T13:00:21.728Z,21.20
2018-01-14T13:02:49.338Z,21.40
2018-01-14T13:05:16.976Z,21.95
2018-01-14T13:07:44.589Z,17.58
2018-01-14T13:10:12.237Z,18.50
2018-01-14T13:12:39.865Z,18.20
2018-01-14T13:15:07.506Z,21.40
2018-01-14T13:17:35.861Z,18.35
2018-01-14T13:20:03.474Z,19.92
2018-01-14T13:22:31.147Z,19.20
2018-01-14T13:24:58.764Z,18.35
2018-01-14T13:27:26.434Z,18.20
2018-01-14T13:29:54.119Z,18.50
2018-01-14T13:32:22.521Z,17.67
2018-01-14T13:34:50.137Z,20.08
2018-01-14T13:37:17.752Z,19.90
2018-01-14T13:39:45.352Z,21.30
2018-01-14T13:42:13.007Z,24.23
2018-01-14T13:44:40.641Z,25.35
2018-01-14T13:47:08.295Z,22.33
2018-01-14T13:49:35.952Z,19.33
2018-01-14T13:52:03.540Z,19.70
2018-01-14T13:54:32.082Z,21.58
2018-01-14T13:56:59.680Z,23.80
2018-01-14T13:59:28.096Z,22.30
2018-01-14T14:01:55.783Z,21.15
2018-01-14T14:04:23.499Z,19.27
2018-01-14T14:06:51.186Z,23.90
2018-01-14T14:09:18.922Z,21.00
2018-01-14T14:11:47.452Z,21.02
2018-01-14T14:14:15.080Z,21.20
2018-01-14T14:16:43.466Z,22.60
2018-01-14T14:19:11.849Z,20.67
2018-01-14T14:21:39.498Z,19.27
2018-01-14T14:24:07.124Z,21.02
2018-01-14T14:26:34.743Z,19.52
2018-01-14T14:29:02.384Z,21.75
2018-01-14T14:31:30.014Z,23.67
2018-01-14T14:33:57.616Z,21.62
2018-01-14T14:36:25.214Z,18.83
2018-01-14T14:38:53.624Z,20.00
2018-01-14T14:41:21.261Z,25.62
2018-01-14T14:43:49.662Z,19.27
2018-01-14T14:46:17.336Z,20.83
2018-01-14T14:48:45.285Z,25.30
2018-01-14T14:51:13.694Z,24.77
2018-01-14T14:53:42.327Z,21.48
2018-01-14T14:56:10.195Z,21.50
2018-01-14T14:58:39.717Z,24.42
2018-01-14T15:01:07.440Z,26.67
2018-01-14T15:03:35.087Z,22.70
2018-01-14T15:06:03.802Z,23.58
2018-01-14T15:08:31.651Z,20.45
2018-01-14T15:10:59.412Z,23.33
2018-01-14T15:13:51.806Z,19.98
2018-01-14T15:16:21.687Z,22.67
2018-01-14T15:18:49.300Z,25.20
2018-01-14T15:21:16.936Z,18.85
2018-01-14T15:23:44.575Z,26.73
2018-01-14T15:26:12.308Z,25.80
2018-01-14T15:28:39.918Z,23.10
2018-01-14T15:31:08.545Z,18.37
2018-01-14T15:33:36.128Z,21.70
2018-01-14T15:36:03.746Z,21.45
2018-01-14T15:38:31.366Z,16.98
2018-01-14T15:41:00.755Z,20.92
2018-01-14T15:43:28.409Z,20.25
2018-01-14T15:45:57.117Z,23.02
2018-01-14T15:48:24.907Z,19.42
2018-01-14T15:50:53.313Z,19.15
2018-01-14T15:53:20.969Z,21.95
2018-01-14T15:55:49.111Z,23.23
2018-01-14T15:58:17.766Z,19.52
2018-01-14T16:00:46.564Z,27.92
2018-01-14T16:03:14.178Z,20.08
2018-01-14T16:05:42.554Z,22.33
2018-01-14T16:08:11.460Z,28.52
2018-01-14T16:10:39.431Z,22.15
2018-01-14T16:13:07.456Z,21.80
2018-01-14T16:15:35.415Z,26.58
2018-01-14T16:18:03.364Z,26.25
2018-01-14T16:20:31.499Z,22.92
2018-01-14T16:23:03.289Z,25.00
2018-01-14T16:25:30.875Z,21.48
2018-01-14T16:27:59.475Z,27.15
2018-01-14T16:30:27.754Z,21.55
2018-01-14T16:32:56.826Z,22.77
2018-01-14T16:35:25.216Z,26.48
2018-01-14T16:37:53.632Z,19.92
2018-01-14T16:40:22.178Z,25.45
2018-01-14T16:42:50.781Z,20.60
2018-01-14T16:45:18.503Z,22.92
2018-01-14T16:47:47.374Z,24.00
2018-01-14T16:50:14.986Z,25.35
2018-01-14T16:52:42.604Z,25.75
2018-01-14T16:55:10.503Z,24.12
2018-01-14T16:57:38.472Z,27.55
2018-01-14T17:00:06.397Z,29.60
2018-01-14T17:02:34.876Z,22.75
2018-01-14T17:05:04.381Z,23.55
2018-01-14T17:07:32.206Z,22.73
2018-01-14T17:10:01.372Z,21.45
2018-01-14T17:12:29.030Z,21.70
2018-01-14T17:14:57.642Z,23.58
2018-01-14T17:17:25.334Z,25.67
2018-01-14T17:19:53.213Z,18.30
2018-01-14T17:22:22.166Z,25.40
2018-01-14T17:24:49.843Z,21.05
2018-01-14T17:27:17.484Z,21.83
2018-01-14T17:29:46.972Z,25.25
2018-01-14T17:32:15.410Z,21.62
2018-01-14T17:34:43.695Z,28.30
2018-01-14T17:37:13.062Z,21.62
2018-01-14T17:39:40.817Z,33.15
2018-01-14T17:42:08.511Z,33.20
2018-01-14T17:44:37.478Z,28.30
2018-01-14T17:47:05.550Z,32.42
2018-01-14T17:49:33.308Z,37.47
2018-01-14T17:52:00.963Z,34.45
2018-01-14T17:54:28.559Z,34.00
2018-01-14T17:56:56.663Z,33.03
2018-01-14T17:59:24.349Z,30.95
2018-01-14T18:01:52.045Z,40.17
2018-01-14T18:04:19.660Z,34.70
2018-01-14T18:06:48.495Z,38.50
2018-01-14T18:09:16.402Z,36.72
2018-01-14T18:11:44.031Z,41.85
2018-01-14T18:14:11.807Z,42.38
2018-01-14T21:33:57.060Z,23.00
2018-01-14T21:36:24.725Z,16.25
2018-01-14T21:38:53.646Z,19.55
2018-01-14T21:41:21.301Z,17.58
2018-01-14T21:43:48.957Z,21.27
2018-01-14T21:46:16.571Z,23.33
2018-01-14T21:48:44.192Z,21.40
2018-01-14T21:51:11.856Z,18.05
2018-01-14T21:53:39.469Z,16.83
2018-01-14T21:56:07.071Z,19.92
2018-01-14T21:58:35.468Z,19.10
2018-01-14T22:01:03.093Z,20.80
2018-01-14T22:03:30.739Z,17.62
2018-01-14T22:05:58.364Z,20.30
2018-01-14T22:08:26.766Z,22.45
2018-01-14T22:10:54.555Z,17.27
2018-01-14T22:13:22.201Z,21.77
2018-01-14T22:15:49.831Z,22.42
2018-01-14T22:18:17.771Z,20.85
2018-01-14T22:20:46.218Z,20.75
2018-01-14T22:23:13.855Z,20.95
2018-01-14T22:25:42.962Z,21.55
2018-01-14T22:28:11.308Z,18.55
2018-01-14T22:30:38.988Z,17.45
2018-01-14T22:33:06.836Z,22.20
2018-01-14T22:35:34.555Z,17.75
2018-01-14T22:38:03.001Z,19.95
2018-01-14T22:40:30.622Z,21.17
2018-01-14T22:42:58.290Z,23.20
2018-01-14T22:45:25.942Z,16.02
2018-01-14T22:47:54.388Z,24.92
2018-01-14T22:50:22.654Z,23.05
2018-01-14T22:52:50.823Z,24.27
2018-01-14T22:55:19.136Z,23.80
2018-01-14T22:57:46.774Z,23.85
2018-01-14T23:00:14.439Z,20.67
2018-01-14T23:02:42.055Z,23.25
2018-01-14T23:05:10.112Z,22.48
2018-01-14T23:07:37.759Z,22.02
2018-01-14T23:10:05.365Z,25.37
2018-01-14T23:12:33.799Z,26.08
2018-01-14T23:15:07.140Z,26.00
2018-01-14T23:17:34.787Z,28.38
2018-01-14T23:20:02.399Z,35.65
2018-01-14T23:22:30.054Z,34.63
2018-01-14T23:24:58.450Z,33.60
2018-01-14T23:27:26.803Z,29.45
2018-01-14T23:29:54.408Z,36.65
2018-01-14T23:32:22.046Z,31.98
2018-01-14T23:34:55.433Z,34.53
2018-01-14T23:37:23.066Z,34.38
2018-01-14T23:39:50.647Z,31.42
2018-01-14T23:42:18.252Z,34.42
2018-01-14T23:44:46.663Z,41.88
2018-01-14T23:47:15.038Z,34.33
2018-01-14T23:49:42.656Z,36.00
2018-01-14T23:52:10.287Z,36.42
2018-01-14T23:54:37.902Z,32.30
2018-01-14T23:57:06.303Z,37.80
2018-01-14T23:59:33.956Z,36.47
